createdAt,value
2018-12-16T00:02:02.532Z,98368.72
2018-12-16T00:04:30.986Z,98364.30
2018-12-16T00:06:59.499Z,98356.14
2018-12-16T00:09:28.043Z,98357.65
2018-12-16T00:11:56.595Z,98350.67
2018-12-16T00:14:25.068Z,98343.00
2018-12-16T00:16:53.563Z,98340.53
2018-12-16T00:19:22.032Z,98341.84
2018-12-16T00:21:50.656Z,98336.98
2018-12-16T00:24:19.116Z,98335.21
2018-12-16T00:26:58.715Z,98337.92
2018-12-16T00:29:27.164Z,98342.19
2018-12-16T00:31:55.660Z,98337.34
2018-12-16T00:34:24.150Z,98337.24
2018-12-16T00:36:52.631Z,98338.54
2018-12-16T00:39:21.108Z,98332.50
2018-12-16T00:41:50.345Z,98331.17
2018-12-16T00:44:18.907Z,98331.31
2018-12-16T00:46:47.395Z,98329.28
2018-12-16T00:49:15.905Z,98326.81
2018-12-16T00:51:44.572Z,98324.08
2018-12-16T00:54:13.081Z,98319.84
2018-12-16T00:56:41.546Z,98319.73
2018-12-16T00:59:10.026Z,98317.39
2018-12-16T01:01:38.607Z,98308.30
2018-12-16T01:04:07.145Z,98307.28
2018-12-16T01:06:35.721Z,98298.45
2018-12-16T01:09:07.373Z,98293.61
2018-12-16T01:11:35.816Z,98292.01
2018-12-16T01:14:04.475Z,98289.06
2018-12-16T01:16:33.129Z,98280.33
2018-12-16T01:19:01.736Z,98283.17
2018-12-16T01:21:30.260Z,98275.25
2018-12-16T01:23:58.808Z,98276.53
2018-12-16T01:26:27.325Z,98271.80
2018-12-16T01:28:55.940Z,98259.80
2018-12-16T01:31:24.451Z,98259.94
2018-12-16T01:33:53.019Z,98259.01
2018-12-16T01:36:21.520Z,98244.62
2018-12-16T01:38:50.113Z,98240.97
2018-12-16T01:41:18.630Z,98243.11
2018-12-16T01:43:47.171Z,98240.84
2018-12-16T01:46:15.709Z,98241.66
2018-12-16T01:48:44.203Z,98239.02
2018-12-16T01:51:12.679Z,98235.02
2018-12-16T01:53:41.215Z,98242.69
2018-12-16T01:56:09.757Z,98235.95
2018-12-16T01:58:38.285Z,98229.58
2018-12-16T02:01:06.785Z,98229.91
2018-12-16T02:03:35.339Z,98234.76
2018-12-16T02:06:03.824Z,98225.21
2018-12-16T02:08:32.353Z,98219.89
2018-12-16T02:11:00.885Z,98220.91
2018-12-16T02:13:29.527Z,98217.87
2018-12-16T02:15:58.169Z,98215.04
2018-12-16T02:18:26.728Z,98211.05
2018-12-16T02:20:55.263Z,98206.46
2018-12-16T02:23:23.847Z,98200.35
2018-12-16T02:25:52.373Z,98188.03
2018-12-16T02:28:20.922Z,98183.09
2018-12-16T02:30:49.424Z,98180.89
2018-12-16T02:33:17.953Z,98174.51
2018-12-16T02:35:46.819Z,98184.28
2018-12-16T02:38:15.341Z,98174.86
2018-12-16T02:40:43.875Z,98172.13
2018-12-16T02:43:12.485Z,98177.20
2018-12-16T02:45:41.055Z,98175.29
2018-12-16T02:48:09.590Z,98167.64
2018-12-16T02:50:38.110Z,98169.98
2018-12-16T02:53:06.713Z,98161.53
2018-12-16T02:55:35.205Z,98162.69
2018-12-16T02:59:06.769Z,98155.82
2018-12-16T03:01:35.341Z,98154.20
2018-12-16T03:04:03.921Z,98148.86
2018-12-16T03:06:32.448Z,98141.66
2018-12-16T03:09:00.976Z,98135.48
2018-12-16T03:11:29.532Z,98129.45
2018-12-16T03:13:58.078Z,98115.89
2018-12-16T03:16:26.585Z,98104.19
2018-12-16T03:18:55.105Z,98100.00
2018-12-16T03:21:23.641Z,98095.01
2018-12-16T03:23:52.169Z,98090.51
2018-12-16T03:26:20.677Z,98084.81
2018-12-16T03:28:49.232Z,98083.25
2018-12-16T03:31:17.767Z,98081.72
2018-12-16T03:33:46.276Z,98085.84
2018-12-16T03:36:14.813Z,98091.14
2018-12-16T03:38:43.340Z,98090.34
2018-12-16T03:41:11.839Z,98089.05
2018-12-16T03:43:40.368Z,98081.05
2018-12-16T03:46:08.919Z,98073.81
2018-12-16T03:48:37.505Z,98070.52
2018-12-16T03:51:06.012Z,98072.31
2018-12-16T03:53:34.645Z,98077.61
2018-12-16T03:56:03.133Z,98078.55
2018-12-16T03:58:31.642Z,98074.38
2018-12-16T04:01:00.161Z,98066.48
2018-12-16T04:03:28.784Z,98075.44
2018-12-16T04:05:57.347Z,98067.17
2018-12-16T04:08:25.836Z,98068.67
2018-12-16T04:10:54.311Z,98072.84
2018-12-16T04:13:22.857Z,98073.27
2018-12-16T04:15:51.358Z,98065.47
2018-12-16T04:18:19.870Z,98068.77
2018-12-16T04:20:48.400Z,98051.97
2018-12-16T04:23:16.904Z,98051.08
2018-12-16T04:25:45.431Z,98050.71
2018-12-16T04:28:14.069Z,98043.98
2018-12-16T04:30:42.577Z,98045.25
2018-12-16T04:33:11.044Z,98053.78
2018-12-16T04:35:39.535Z,98049.63
2018-12-16T04:38:07.989Z,98060.15
2018-12-16T04:40:36.509Z,98057.84
2018-12-16T04:43:05.017Z,98063.91
2018-12-16T04:45:33.492Z,98064.41
2018-12-16T04:48:01.979Z,98055.41
2018-12-16T04:50:30.517Z,98056.77
2018-12-16T04:52:59.016Z,98048.23
2018-12-16T04:55:27.525Z,98047.67
2018-12-16T04:57:56.031Z,98041.58
2018-12-16T05:00:24.563Z,98035.02
2018-12-16T05:02:53.069Z,98033.11
2018-12-16T05:05:21.584Z,98023.09
2018-12-16T05:07:50.320Z,98012.00
2018-12-16T05:10:27.686Z,98005.33
2018-12-16T05:12:56.384Z,97999.94
2018-12-16T05:15:24.879Z,97984.06
2018-12-16T05:17:53.541Z,97985.17
2018-12-16T05:20:22.170Z,97988.80
2018-12-16T05:22:50.653Z,97988.19
2018-12-16T05:25:19.242Z,97984.02
2018-12-16T05:27:48.647Z,97977.84
2018-12-16T05:30:17.343Z,97991.41
2018-12-16T05:32:46.048Z,97993.54
2018-12-16T05:35:14.577Z,98002.18
2018-12-16T05:37:43.069Z,98002.73
2018-12-16T05:40:11.604Z,98003.89
2018-12-16T05:42:41.417Z,98000.55
2018-12-16T05:45:09.924Z,97998.55
2018-12-16T05:47:38.363Z,97996.23
2018-12-16T05:50:07.740Z,97992.80
2018-12-16T05:52:36.219Z,97988.20
2018-12-16T05:55:06.770Z,97994.28
2018-12-16T05:57:35.339Z,97992.38
2018-12-16T06:00:04.307Z,97999.30
2018-12-16T06:02:32.910Z,97998.64
2018-12-16T06:05:01.591Z,97992.33
2018-12-16T06:07:30.092Z,97996.28
2018-12-16T06:09:58.648Z,97995.95
2018-12-16T06:12:27.213Z,98005.28
2018-12-16T06:14:55.703Z,98006.27
2018-12-16T06:17:24.287Z,98005.20
2018-12-16T06:22:45.796Z,98001.34
2018-12-16T06:25:14.304Z,98001.20
2018-12-16T06:27:42.779Z,97997.86
2018-12-16T06:30:12.089Z,97996.23
2018-12-16T06:32:40.704Z,97996.18
2018-12-16T06:35:15.781Z,97978.11
2018-12-16T06:37:44.247Z,97978.98
2018-12-16T06:40:12.756Z,97980.98
2018-12-16T06:42:41.261Z,97997.34
2018-12-16T06:45:09.956Z,98001.80
2018-12-16T06:47:38.489Z,97996.65
2018-12-16T06:50:07.999Z,98001.05
2018-12-16T06:52:36.462Z,98001.11
2018-12-16T06:55:05.428Z,98006.69
2018-12-16T06:57:33.877Z,98004.59
2018-12-16T07:00:02.347Z,98009.00
2018-12-16T07:02:31.340Z,97999.80
2018-12-16T07:04:59.826Z,97999.58
2018-12-16T07:07:28.691Z,98006.59
2018-12-16T07:09:57.200Z,97992.47
2018-12-16T07:12:25.711Z,97986.52
2018-12-16T07:14:54.274Z,97981.53
2018-12-16T07:17:22.824Z,97990.37
2018-12-16T07:19:51.346Z,97988.32
2018-12-16T07:22:19.900Z,97985.84
2018-12-16T07:24:48.403Z,97985.12
2018-12-16T07:27:16.851Z,97990.41
2018-12-16T07:29:45.355Z,97988.36
2018-12-16T07:32:13.825Z,97981.42
2018-12-16T07:34:42.314Z,97975.17
2018-12-16T07:37:10.786Z,97975.82
2018-12-16T07:39:39.243Z,97979.67
2018-12-16T07:42:07.699Z,97986.45
2018-12-16T07:44:36.308Z,97976.92
2018-12-16T07:47:04.808Z,97988.28
2018-12-16T07:49:33.259Z,97988.08
2018-12-16T07:52:01.771Z,97991.88
2018-12-16T07:54:30.207Z,97988.28
2018-12-16T07:56:58.736Z,97980.59
2018-12-16T07:59:27.267Z,97972.23
2018-12-16T08:01:55.739Z,97978.36
2018-12-16T08:04:24.188Z,97976.20
2018-12-16T08:06:52.657Z,97973.79
2018-12-16T08:09:21.139Z,97978.12
2018-12-16T08:11:49.588Z,97980.55
2018-12-16T08:14:18.003Z,97988.17
2018-12-16T08:16:46.448Z,98003.41
2018-12-16T08:19:15.119Z,98007.13
2018-12-16T08:21:43.640Z,98020.13
2018-12-16T08:24:12.088Z,98027.30
2018-12-16T08:26:40.562Z,98035.02
2018-12-16T08:29:08.978Z,98026.95
2018-12-16T08:31:37.460Z,98013.41
2018-12-16T08:34:05.956Z,98009.73
2018-12-16T08:36:34.412Z,98001.52
2018-12-16T08:39:03.501Z,97992.96
2018-12-16T08:41:31.989Z,97986.24
2018-12-16T08:44:00.440Z,97988.73
2018-12-16T08:46:28.920Z,97989.65
2018-12-16T08:48:57.371Z,97984.73
2018-12-16T08:51:25.844Z,97975.13
2018-12-16T08:53:54.280Z,97968.17
2018-12-16T08:56:22.748Z,97971.94
2018-12-16T08:58:51.206Z,97968.17
2018-12-16T09:01:19.677Z,97974.00
2018-12-16T09:03:48.510Z,97976.58
2018-12-16T09:06:17.212Z,97977.73
2018-12-16T09:08:46.089Z,97980.17
2018-12-16T09:11:14.683Z,97983.38
2018-12-16T09:13:43.133Z,97986.52
2018-12-16T09:16:11.596Z,97989.45
2018-12-16T09:18:40.032Z,97987.33
2018-12-16T09:21:08.495Z,97981.91
2018-12-16T09:23:36.936Z,97984.41
2018-12-16T09:26:05.398Z,97974.69
2018-12-16T09:28:33.920Z,97984.78
2018-12-16T09:31:02.375Z,97987.21
2018-12-16T09:33:30.802Z,97986.64
2018-12-16T09:35:59.251Z,97977.45
2018-12-16T09:38:27.685Z,97969.67
2018-12-16T09:40:56.123Z,97961.22
2018-12-16T09:43:24.583Z,97962.27
2018-12-16T09:45:53.037Z,97961.47
2018-12-16T09:48:21.503Z,97952.31
2018-12-16T09:50:49.940Z,97947.37
2018-12-16T09:53:18.393Z,97946.78
2018-12-16T09:55:46.843Z,97957.63
2018-12-16T09:58:15.323Z,97946.38
2018-12-16T10:00:43.768Z,97945.69
2018-12-16T10:03:14.239Z,97940.98
2018-12-16T10:05:42.683Z,97939.84
2018-12-16T10:08:11.159Z,97935.66
2018-12-16T10:10:39.632Z,97940.30
2018-12-16T10:13:08.108Z,97940.34
2018-12-16T10:15:37.616Z,97937.58
2018-12-16T10:18:06.075Z,97927.48
2018-12-16T10:20:34.509Z,97922.06
2018-12-16T10:23:02.975Z,97913.66
2018-12-16T10:25:31.417Z,97917.23
2018-12-16T10:27:59.914Z,97919.09
2018-12-16T10:30:28.352Z,97923.41
2018-12-16T10:32:56.819Z,97931.80
2018-12-16T10:35:25.267Z,97925.11
2018-12-16T10:37:53.721Z,97924.23
2018-12-16T10:40:22.159Z,97915.12
2018-12-16T10:42:50.627Z,97922.91
2018-12-16T10:45:19.047Z,97919.94
2018-12-16T10:47:47.529Z,97922.87
2018-12-16T10:50:15.956Z,97936.45
2018-12-16T10:52:44.428Z,97922.33
2018-12-16T10:55:12.889Z,97919.96
2018-12-16T10:57:41.375Z,97919.56
2018-12-16T11:00:16.825Z,97918.06
2018-12-16T11:02:45.296Z,97911.21
2018-12-16T11:05:14.772Z,97915.45
2018-12-16T11:07:43.242Z,97911.37
2018-12-16T11:10:11.678Z,97904.44
2018-12-16T11:12:40.588Z,97901.86
2018-12-16T11:15:09.028Z,97912.04
2018-12-16T11:17:37.491Z,97903.45
2018-12-16T11:20:06.219Z,97918.42
2018-12-16T11:22:34.803Z,97904.13
2018-12-16T11:25:05.882Z,97924.12
2018-12-16T11:27:33.857Z,97912.20
2018-12-16T11:30:02.288Z,97914.66
2018-12-16T11:32:30.755Z,97914.26
2018-12-16T11:34:59.180Z,97912.03
2018-12-16T11:37:27.639Z,97908.23
2018-12-16T11:39:56.083Z,97901.14
2018-12-16T11:42:24.537Z,97905.98
2018-12-16T11:44:52.938Z,97902.84
2018-12-16T11:47:21.410Z,97897.30
2018-12-16T11:49:49.855Z,97899.95
2018-12-16T11:52:18.335Z,97907.67
2018-12-16T11:54:46.905Z,97897.91
2018-12-16T11:57:15.366Z,97889.94
2018-12-16T11:59:43.809Z,97888.13
2018-12-16T12:02:12.300Z,97885.16
2018-12-16T12:04:40.734Z,97881.39
2018-12-16T12:07:09.222Z,97880.48
2018-12-16T12:09:38.379Z,97876.08
2018-12-16T12:12:06.959Z,97883.72
2018-12-16T12:14:35.495Z,97879.92
2018-12-16T12:17:04.876Z,97881.63
2018-12-16T12:19:39.308Z,97882.27
2018-12-16T12:22:08.057Z,97881.47
2018-12-16T12:24:36.508Z,97882.65
2018-12-16T12:27:05.136Z,97888.55
2018-12-16T12:29:33.595Z,97888.71
2018-12-16T12:32:02.076Z,97890.20
2018-12-16T12:34:30.632Z,97900.16
2018-12-16T12:36:59.097Z,97904.59
2018-12-16T12:39:28.344Z,97895.20
2018-12-16T12:41:56.799Z,97888.52
2018-12-16T12:44:25.272Z,97890.14
2018-12-16T12:46:53.740Z,97887.72
2018-12-16T12:49:22.273Z,97885.07
2018-12-16T12:51:50.720Z,97889.91
2018-12-16T12:54:19.253Z,97887.41
2018-12-16T12:56:47.776Z,97887.16
2018-12-16T12:59:16.325Z,97883.09
2018-12-16T13:01:44.911Z,97876.20
2018-12-16T13:04:13.396Z,97880.91
2018-12-16T13:06:41.937Z,97884.70
2018-12-16T13:09:10.587Z,97884.88
2018-12-16T13:11:39.200Z,97884.70
2018-12-16T13:14:07.735Z,97892.87
2018-12-16T13:16:36.170Z,97876.58
2018-12-16T13:19:04.653Z,97888.70
2018-12-16T13:21:33.141Z,97893.45
2018-12-16T13:24:01.645Z,97897.11
2018-12-16T13:26:30.130Z,97884.03
2018-12-16T13:28:58.639Z,97887.33
2018-12-16T13:31:27.106Z,97890.57
2018-12-16T13:33:55.647Z,97895.95
2018-12-16T13:36:24.098Z,97886.48
2018-12-16T13:38:52.571Z,97893.02
2018-12-16T13:41:21.057Z,97891.52
2018-12-16T13:43:49.535Z,97891.16
2018-12-16T13:46:18.000Z,97901.80
2018-12-16T13:48:46.529Z,97896.06
2018-12-16T13:51:15.062Z,97893.88
2018-12-16T13:53:43.548Z,97903.64
2018-12-16T13:56:12.040Z,97895.45
2018-12-16T13:58:40.571Z,97888.41
2018-12-16T14:01:09.038Z,97909.80
2018-12-16T14:03:37.513Z,97909.30
2018-12-16T14:06:05.980Z,97921.41
2018-12-16T14:08:34.480Z,97914.88
2018-12-16T14:11:02.920Z,97923.23
2018-12-16T14:13:31.396Z,97927.47
2018-12-16T14:15:59.835Z,97934.94
2018-12-16T14:18:28.368Z,97929.13
2018-12-16T14:20:56.886Z,97928.08
2018-12-16T14:23:25.510Z,97934.61
2018-12-16T14:25:54.116Z,97934.94
2018-12-16T14:28:22.541Z,97928.72
2018-12-16T14:30:51.001Z,97934.41
2018-12-16T14:33:19.512Z,97934.52
2018-12-16T14:35:47.992Z,97939.95
2018-12-16T14:38:16.552Z,97943.14
2018-12-16T14:40:45.047Z,97944.70
2018-12-16T14:43:13.544Z,97946.27
2018-12-16T14:45:42.042Z,97956.57
2018-12-16T14:48:10.497Z,97948.56
2018-12-16T14:50:39.070Z,97951.66
2018-12-16T14:53:07.520Z,97961.62
2018-12-16T14:55:36.020Z,97955.25
2018-12-16T14:58:04.482Z,97964.72
2018-12-16T15:00:32.976Z,97957.25
2018-12-16T15:03:02.328Z,97960.84
2018-12-16T15:05:30.829Z,97952.17
2018-12-16T15:07:59.265Z,97956.83
2018-12-16T15:10:27.714Z,97963.50
2018-12-16T15:12:56.273Z,97964.97
2018-12-16T15:15:24.770Z,97961.01
2018-12-16T15:17:53.229Z,97955.94
2018-12-16T15:20:21.716Z,97976.05
2018-12-16T15:22:50.191Z,97970.55
2018-12-16T15:25:18.708Z,97970.77
2018-12-16T15:27:47.137Z,97981.59
2018-12-16T15:30:15.599Z,97979.45
2018-12-16T15:32:44.092Z,97979.92
2018-12-16T15:35:12.621Z,97977.14
2018-12-16T15:37:41.108Z,97983.00
2018-12-16T15:40:09.788Z,97990.52
2018-12-16T15:42:38.228Z,97985.92
2018-12-16T15:45:09.129Z,97993.82
2018-12-16T15:47:37.641Z,97988.07
2018-12-16T15:50:07.344Z,97986.14
2018-12-16T15:52:35.809Z,97989.53
2018-12-16T15:55:05.813Z,97992.20
2018-12-16T15:57:34.293Z,97990.80
2018-12-16T16:00:02.813Z,97989.22
2018-12-16T16:02:35.843Z,97987.08
2018-12-16T16:05:04.945Z,97993.61
2018-12-16T16:07:33.514Z,97999.92
2018-12-16T16:10:01.962Z,97998.94
2018-12-16T16:12:30.439Z,98002.40
2018-12-16T16:14:58.965Z,98005.09
2018-12-16T16:17:27.439Z,98007.23
2018-12-16T16:19:56.912Z,98017.18
2018-12-16T16:22:25.399Z,98012.83
2018-12-16T16:24:53.853Z,98014.61
2018-12-16T16:27:22.339Z,98008.56
2018-12-16T16:29:50.815Z,98011.11
2018-12-16T16:32:19.303Z,98019.53
2018-12-16T16:34:47.766Z,98010.09
2018-12-16T16:37:16.270Z,98027.95
2018-12-16T16:39:45.069Z,98014.53
2018-12-16T16:42:14.321Z,98018.23
2018-12-16T16:44:42.844Z,98026.96
2018-12-16T16:47:11.366Z,98032.19
2018-12-16T16:49:40.555Z,98029.00
2018-12-16T16:52:09.236Z,98032.23
2018-12-16T16:54:37.732Z,98026.96
2018-12-16T16:57:06.272Z,98031.34
2018-12-16T16:59:35.876Z,98047.34
2018-12-16T17:02:04.565Z,98044.66
2018-12-16T17:04:33.006Z,98040.89
2018-12-16T17:07:02.155Z,98047.06
2018-12-16T17:09:30.823Z,98052.34
2018-12-16T17:12:07.281Z,98052.45
2018-12-16T17:14:35.731Z,98048.92
2018-12-16T17:17:04.381Z,98048.64
2018-12-16T17:19:32.851Z,98054.04
2018-12-16T17:22:01.581Z,98053.26
2018-12-16T17:24:30.272Z,98055.70
2018-12-16T17:26:59.033Z,98062.34
2018-12-16T17:29:27.913Z,98053.04
2018-12-16T17:31:56.379Z,98070.33
2018-12-16T17:34:24.859Z,98061.88
2018-12-16T17:36:53.332Z,98060.52
2018-12-16T17:39:21.792Z,98067.20
2018-12-16T17:41:50.403Z,98069.03
2018-12-16T17:44:18.907Z,98064.97
2018-12-16T17:46:47.375Z,98060.84
2018-12-16T17:49:15.820Z,98064.55
2018-12-16T17:51:44.309Z,98064.91
2018-12-16T17:54:12.771Z,98059.16
2018-12-16T17:56:41.266Z,98053.98
2018-12-16T17:59:09.720Z,98060.58
2018-12-16T18:01:38.366Z,98063.23
2018-12-16T18:04:10.256Z,98068.27
2018-12-16T18:06:38.922Z,98075.63
2018-12-16T18:09:09.204Z,98064.98
2018-12-16T18:11:37.691Z,98064.02
2018-12-16T18:14:06.581Z,98058.97
2018-12-16T18:16:36.043Z,98057.53
2018-12-16T18:19:04.539Z,98060.15
2018-12-16T18:21:32.991Z,98066.80
2018-12-16T18:24:01.457Z,98060.73
2018-12-16T18:26:29.926Z,98063.67
2018-12-16T18:28:58.444Z,98060.16
2018-12-16T18:31:26.920Z,98057.18
2018-12-16T18:33:55.387Z,98063.72
2018-12-16T18:36:23.822Z,98072.55
2018-12-16T18:38:52.289Z,98070.92
2018-12-16T18:41:20.773Z,98074.37
2018-12-16T18:43:49.390Z,98074.32
2018-12-16T18:46:17.899Z,98073.69
2018-12-16T18:48:46.368Z,98066.00
2018-12-16T18:51:14.825Z,98073.34
2018-12-16T18:53:43.442Z,98074.02
2018-12-16T18:56:11.883Z,98081.37
2018-12-16T18:58:40.343Z,98068.63
2018-12-16T19:01:08.835Z,98063.61
2018-12-16T19:03:37.455Z,98068.36
2018-12-16T19:06:05.895Z,98058.95
2018-12-16T19:08:34.351Z,98066.53
2018-12-16T19:11:02.952Z,98075.11
2018-12-16T19:13:31.565Z,98069.05
2018-12-16T19:16:00.148Z,98079.51
2018-12-16T19:18:32.314Z,98076.11
2018-12-16T19:21:01.315Z,98084.70
2018-12-16T19:23:30.048Z,98085.27
2018-12-16T19:25:58.683Z,98082.02
2018-12-16T19:28:27.213Z,98083.02
2018-12-16T19:30:59.178Z,98077.24
2018-12-16T19:33:27.648Z,98074.31
2018-12-16T19:35:56.250Z,98074.94
2018-12-16T19:38:24.810Z,98076.09
2018-12-16T19:40:53.626Z,98075.25
2018-12-16T19:43:22.200Z,98086.78
2018-12-16T19:45:51.145Z,98082.07
2018-12-16T19:48:19.684Z,98098.33
2018-12-16T19:50:48.496Z,98089.05
2018-12-16T19:53:17.411Z,98101.12
2018-12-16T19:55:53.751Z,98099.55
2018-12-16T19:58:22.545Z,98096.13
2018-12-16T20:00:51.023Z,98084.52
2018-12-16T20:03:19.511Z,98089.59
2018-12-16T20:05:53.372Z,98088.91
2018-12-16T20:08:21.860Z,98092.88
2018-12-16T20:10:50.312Z,98091.05
2018-12-16T20:13:18.844Z,98087.72
2018-12-16T20:15:47.283Z,98073.84
2018-12-16T20:18:15.776Z,98083.31
2018-12-16T20:20:44.235Z,98079.06
2018-12-16T20:23:12.796Z,98080.06
2018-12-16T20:25:41.227Z,98086.80
2018-12-16T20:28:09.759Z,98081.53
2018-12-16T20:30:38.244Z,98083.05
2018-12-16T20:33:06.789Z,98082.06
2018-12-16T20:35:35.492Z,98090.75
2018-12-16T20:38:04.554Z,98100.38
2018-12-16T20:40:33.240Z,98096.17
2018-12-16T20:43:02.021Z,98097.92
2018-12-16T20:45:30.635Z,98109.21
2018-12-16T20:47:59.107Z,98105.61
2018-12-16T20:50:27.582Z,98105.81
2018-12-16T20:52:56.127Z,98106.80
2018-12-16T20:55:24.640Z,98115.12
2018-12-16T20:57:53.099Z,98113.40
2018-12-16T21:00:21.704Z,98110.83
2018-12-16T21:02:50.165Z,98114.91
2018-12-16T21:05:18.694Z,98104.24
2018-12-16T21:07:47.139Z,98107.69
2018-12-16T21:10:15.656Z,98113.81
2018-12-16T21:12:49.384Z,98114.92
2018-12-16T21:15:23.099Z,98104.97
2018-12-16T21:17:56.987Z,98108.38
2018-12-16T21:20:25.613Z,98109.21
2018-12-16T21:22:54.076Z,98108.69
2018-12-16T21:25:23.080Z,98117.73
2018-12-16T21:27:51.663Z,98108.69
2018-12-16T21:30:20.152Z,98115.69
2018-12-16T21:32:48.621Z,98121.72
2018-12-16T21:35:17.112Z,98124.43
2018-12-16T21:37:45.577Z,98124.23
2018-12-16T21:40:14.203Z,98130.98
2018-12-16T21:42:42.660Z,98135.42
2018-12-16T21:45:11.146Z,98145.72
2018-12-16T21:47:39.617Z,98131.81
2018-12-16T21:50:08.159Z,98134.95
2018-12-16T21:52:36.644Z,98134.27
2018-12-16T21:55:05.368Z,98138.56
2018-12-16T21:57:33.868Z,98146.92
2018-12-16T22:00:02.455Z,98143.32
2018-12-16T22:02:30.928Z,98137.45
2018-12-16T22:04:59.391Z,98137.92
2018-12-16T22:07:27.849Z,98140.91
2018-12-16T22:09:56.357Z,98144.16
2018-12-16T22:12:24.813Z,98141.84
2018-12-16T22:14:53.308Z,98136.15
2018-12-16T22:17:21.819Z,98143.09
2018-12-16T22:19:50.444Z,98142.91
2018-12-16T22:22:18.918Z,98143.17
2018-12-16T22:24:47.406Z,98150.49
2018-12-16T22:27:15.876Z,98156.09
2018-12-16T22:29:44.366Z,98162.42
2018-12-16T22:32:12.835Z,98160.89
2018-12-16T22:34:41.377Z,98155.71
2018-12-16T22:37:09.985Z,98157.23
2018-12-16T22:39:38.473Z,98150.27
2018-12-16T22:42:07.657Z,98146.56
2018-12-16T22:44:36.171Z,98146.97
2018-12-16T22:47:04.655Z,98143.08
2018-12-16T22:49:33.390Z,98153.56
2018-12-16T22:52:01.857Z,98147.06
2018-12-16T22:54:30.388Z,98145.27
2018-12-16T22:56:58.868Z,98136.55
2018-12-16T22:59:27.384Z,98130.23
2018-12-16T23:01:55.818Z,98126.00
2018-12-16T23:04:24.345Z,98131.67
2018-12-16T23:06:52.828Z,98119.26
2018-12-16T23:09:21.369Z,98126.52
2018-12-16T23:11:49.858Z,98119.48
2018-12-16T23:14:18.373Z,98131.43
2018-12-16T23:16:46.865Z,98129.52
2018-12-16T23:19:15.387Z,98127.38
2018-12-16T23:21:43.856Z,98131.00
2018-12-16T23:24:12.394Z,98126.27
2018-12-16T23:26:40.920Z,98137.90
2018-12-16T23:29:09.434Z,98139.88
2018-12-16T23:31:37.891Z,98141.38
2018-12-16T23:34:06.381Z,98135.98
2018-12-16T23:36:34.868Z,98135.31
2018-12-16T23:39:04.982Z,98137.27
2018-12-16T23:41:33.479Z,98138.60
2018-12-16T23:44:02.050Z,98146.14
2018-12-16T23:46:30.558Z,98143.20
2018-12-16T23:48:59.006Z,98141.86
2018-12-16T23:51:27.512Z,98137.42
2018-12-16T23:53:55.979Z,98134.77
2018-12-16T23:56:24.473Z,98135.56
2018-12-16T23:58:52.974Z,98139.36
